createdAt,value
2023-04-18T00:00:18.477Z,18.63
2023-04-18T00:03:06.527Z,25.65
2023-04-18T00:05:33.903Z,25.13
2023-04-18T00:08:01.349Z,20.70
2023-04-18T00:10:28.517Z,17.42
2023-04-18T00:12:55.965Z,19.02
2023-04-18T00:15:24.111Z,19.00
2023-04-18T00:18:19.933Z,20.48
2023-04-18T00:20:47.248Z,19.85
2023-04-18T00:23:14.905Z,19.50
2023-04-18T00:25:42.076Z,22.65
2023-04-18T00:28:09.975Z,22.23
2023-04-18T00:30:37.262Z,23.65
2023-04-18T00:33:05.494Z,26.73
2023-04-18T00:35:32.808Z,23.67
2023-04-18T00:38:00.268Z,22.48
2023-04-18T00:40:27.611Z,21.70
2023-04-18T00:42:55.853Z,21.70
2023-04-18T00:45:23.072Z,23.00
2023-04-18T00:47:50.739Z,26.70
2023-04-18T00:50:18.462Z,26.80
2023-04-18T00:52:47.012Z,23.75
2023-04-18T00:55:14.589Z,25.83
2023-04-18T00:57:42.791Z,22.20
2023-04-18T01:00:10.574Z,23.75
2023-04-18T01:02:39.828Z,25.13
2023-04-18T01:05:08.153Z,24.00
2023-04-18T01:07:38.113Z,31.92
2023-04-18T01:10:06.041Z,26.05
2023-04-18T01:12:33.661Z,29.35
2023-04-18T01:15:00.887Z,24.88
2023-04-18T01:17:31.697Z,28.30
2023-04-18T01:24:08.586Z,30.00
2023-04-18T01:26:35.969Z,26.35
2023-04-18T01:29:06.370Z,24.35
2023-04-18T01:31:38.051Z,23.17
2023-04-18T01:34:06.303Z,23.25
2023-04-18T01:36:34.005Z,24.33
2023-04-18T01:39:02.384Z,27.85
2023-04-18T01:41:32.895Z,23.92
2023-04-18T01:44:00.772Z,22.87
2023-04-18T01:46:28.984Z,26.65
2023-04-18T01:48:57.173Z,26.52
2023-04-18T01:51:24.396Z,25.23
2023-04-18T01:53:54.497Z,25.67
2023-04-18T01:56:21.821Z,23.63
2023-04-18T01:58:49.325Z,22.15
2023-04-18T02:01:16.619Z,25.85
2023-04-18T02:03:44.472Z,27.02
2023-04-18T02:06:13.352Z,24.45
2023-04-18T02:08:41.084Z,22.30
2023-04-18T02:11:08.364Z,21.23
2023-04-18T02:13:35.827Z,29.70
2023-04-18T02:16:12.932Z,26.05
2023-04-18T02:18:43.263Z,32.28
2023-04-18T02:21:11.333Z,23.58
2023-04-18T02:23:38.836Z,28.35
2023-04-18T02:26:06.646Z,29.73
2023-04-18T02:28:34.289Z,30.88
2023-04-18T02:31:03.734Z,27.30
2023-04-18T02:33:31.291Z,28.05
2023-04-18T02:35:58.490Z,28.48
2023-04-18T02:38:25.964Z,23.45
2023-04-18T02:40:53.167Z,31.55
2023-04-18T02:43:21.552Z,28.73
2023-04-18T02:45:49.066Z,28.58
2023-04-18T02:48:16.682Z,28.05
2023-04-18T02:50:45.666Z,26.92
2023-04-18T02:53:13.463Z,27.05
2023-04-18T02:55:51.697Z,27.42
2023-04-18T02:58:20.613Z,25.42
2023-04-18T03:01:19.437Z,27.27
2023-04-18T03:04:02.597Z,25.13
2023-04-18T03:06:37.285Z,28.20
2023-04-18T03:09:04.960Z,23.35
2023-04-18T03:11:35.012Z,23.73
2023-04-18T03:14:02.837Z,28.30
2023-04-18T03:16:37.649Z,21.40
2023-04-18T03:19:07.113Z,25.98
2023-04-18T03:21:34.371Z,22.27
2023-04-18T03:24:02.246Z,27.58
2023-04-18T03:26:29.640Z,25.17
2023-04-18T03:28:57.742Z,28.45
2023-04-18T03:31:25.530Z,26.80
2023-04-18T03:33:53.114Z,26.02
2023-04-18T03:36:25.353Z,28.38
2023-04-18T03:38:55.028Z,22.52
2023-04-18T03:41:22.351Z,25.88
2023-04-18T03:43:49.918Z,28.02
2023-04-18T03:46:17.868Z,26.30
2023-04-18T03:48:46.365Z,27.02
2023-04-18T03:51:14.423Z,28.02
2023-04-18T03:53:41.960Z,28.35
2023-04-18T03:56:09.420Z,30.88
2023-04-18T03:58:47.754Z,24.60
2023-04-18T04:01:15.083Z,26.60
2023-04-18T04:03:42.691Z,26.17
2023-04-18T04:06:10.100Z,27.48
2023-04-18T04:08:37.554Z,28.23
2023-04-18T04:11:05.348Z,27.55
2023-04-18T04:13:33.883Z,23.77
2023-04-18T04:16:01.761Z,26.80
2023-04-18T04:18:32.676Z,25.33
2023-04-18T04:21:03.326Z,27.33
2023-04-18T04:23:48.270Z,23.00
2023-04-18T04:26:30.796Z,24.15
2023-04-18T04:29:13.920Z,23.45
2023-04-18T04:31:43.120Z,23.33
2023-04-18T04:34:10.671Z,25.38
2023-04-18T04:36:38.225Z,25.58
2023-04-18T04:39:08.734Z,24.42
2023-04-18T04:41:58.755Z,24.67
2023-04-18T04:44:31.714Z,26.67
2023-04-18T04:46:59.504Z,24.85
2023-04-18T04:49:32.924Z,25.15
2023-04-18T04:52:01.893Z,28.00
2023-04-18T04:54:29.990Z,28.65
2023-04-18T04:56:57.368Z,22.17
2023-04-18T04:59:26.067Z,24.33
2023-04-18T05:01:53.449Z,23.58
2023-04-18T05:04:21.208Z,23.38
2023-04-18T05:06:48.585Z,23.52
2023-04-18T05:09:16.183Z,23.83
2023-04-18T05:11:43.396Z,24.23
2023-04-18T05:14:12.644Z,20.35
2023-04-18T05:16:40.419Z,28.05
2023-04-18T05:19:07.959Z,23.33
2023-04-18T05:21:35.266Z,23.20
2023-04-18T05:24:02.710Z,24.10
2023-04-18T05:26:29.839Z,24.48
2023-04-18T05:28:57.341Z,19.95
2023-04-18T05:31:24.700Z,21.67
2023-04-18T05:33:52.222Z,22.98
2023-04-18T05:36:19.513Z,21.10
2023-04-18T05:38:47.017Z,20.98
2023-04-18T05:41:14.178Z,23.33
2023-04-18T05:43:43.020Z,19.13
2023-04-18T05:48:41.279Z,18.55
2023-04-18T05:51:10.546Z,17.13
2023-04-18T05:53:39.055Z,16.20
2023-04-18T05:56:06.931Z,18.75
2023-04-18T05:58:34.512Z,15.20
2023-04-18T06:01:01.825Z,19.88
2023-04-18T06:03:29.471Z,14.00
2023-04-18T06:05:56.879Z,13.45
2023-04-18T06:08:24.602Z,14.38
2023-04-18T06:10:51.824Z,15.70
2023-04-18T06:13:19.339Z,11.40
2023-04-18T06:15:46.713Z,13.00
2023-04-18T06:18:14.236Z,12.18
2023-04-18T06:20:42.239Z,10.82
2023-04-18T06:23:09.937Z,11.43
2023-04-18T06:25:37.745Z,12.32
2023-04-18T06:28:05.531Z,11.45
2023-04-18T06:30:32.738Z,10.00
2023-04-18T06:33:00.496Z,11.77
2023-04-18T06:35:29.155Z,10.50
2023-04-18T06:37:57.208Z,12.45
2023-04-18T06:40:24.467Z,11.73
2023-04-18T06:42:51.948Z,12.25
2023-04-18T06:45:19.366Z,11.07
2023-04-18T06:47:47.874Z,10.55
2023-04-18T06:50:15.994Z,12.65
2023-04-18T06:52:46.331Z,11.13
2023-04-18T06:55:14.050Z,11.23
2023-04-18T06:57:42.938Z,17.98
2023-04-18T07:00:10.866Z,18.90
2023-04-18T07:02:39.571Z,11.80
2023-04-18T07:05:07.726Z,12.95
2023-04-18T07:07:35.651Z,10.63
2023-04-18T07:10:03.001Z,10.52
2023-04-18T07:12:30.877Z,11.45
2023-04-18T07:14:58.179Z,10.60
2023-04-18T07:17:25.729Z,9.18
2023-04-18T07:19:52.965Z,16.52
2023-04-18T07:22:20.525Z,11.27
2023-04-18T07:24:47.717Z,11.43
2023-04-18T07:27:15.345Z,9.95
2023-04-18T07:29:42.521Z,9.68
2023-04-18T07:32:10.941Z,12.10
2023-04-18T07:34:40.366Z,10.10
2023-04-18T07:37:07.960Z,8.40
2023-04-18T07:39:36.300Z,9.65
2023-04-18T07:42:04.657Z,10.30
2023-04-18T07:44:31.964Z,7.55
2023-04-18T07:46:59.628Z,10.02
2023-04-18T08:03:03.934Z,9.43
2023-04-18T08:05:31.296Z,11.30
2023-04-18T08:07:58.808Z,12.20
2023-04-18T08:10:26.052Z,12.35
2023-04-18T08:12:53.542Z,10.93
2023-04-18T08:15:20.862Z,9.50
2023-04-18T08:17:49.256Z,11.00
2023-04-18T08:20:16.478Z,9.98
2023-04-18T08:22:57.385Z,9.55
2023-04-18T08:30:37.017Z,8.27
2023-04-18T08:37:38.406Z,7.88
2023-04-18T08:40:07.393Z,8.27
2023-04-18T08:42:37.185Z,9.40
2023-04-18T08:45:09.645Z,8.90
2023-04-18T08:47:37.388Z,9.20
2023-04-18T08:50:04.861Z,8.35
2023-04-18T08:52:34.296Z,7.90
2023-04-18T08:55:02.836Z,9.65
2023-04-18T08:57:31.517Z,10.70
2023-04-18T09:00:00.840Z,15.10
2023-04-18T09:02:42.596Z,7.78
2023-04-18T09:07:42.111Z,8.45
2023-04-18T09:18:42.518Z,7.50
2023-04-18T09:21:19.475Z,8.13
2023-04-18T09:23:50.466Z,8.57
2023-04-18T09:31:26.609Z,6.70
2023-04-18T09:37:57.249Z,9.90
2023-04-18T09:40:24.874Z,9.70
2023-04-18T09:42:54.383Z,11.25
2023-04-18T09:45:23.774Z,8.95
2023-04-18T09:47:52.504Z,8.68
2023-04-18T09:50:20.975Z,10.43
2023-04-18T09:52:48.705Z,8.75
2023-04-18T09:55:19.615Z,9.68
2023-04-18T09:57:48.960Z,8.10
2023-04-18T10:00:30.972Z,7.78
2023-04-18T10:03:08.859Z,9.63
2023-04-18T10:05:39.406Z,9.38
2023-04-18T10:08:08.010Z,9.05
2023-04-18T10:10:38.529Z,9.10
2023-04-18T10:13:11.742Z,10.23
2023-04-18T10:26:18.211Z,10.75
2023-04-18T10:33:31.042Z,10.13
2023-04-18T10:36:00.874Z,15.93
2023-04-18T10:38:28.747Z,14.77
2023-04-18T10:41:32.785Z,14.95
2023-04-18T10:44:08.964Z,12.00
2023-04-18T10:46:52.825Z,14.35
2023-04-18T10:49:31.103Z,13.85
2023-04-18T10:52:02.236Z,11.93
2023-04-18T10:54:32.252Z,14.23
2023-04-18T10:57:04.722Z,12.18
2023-04-18T10:59:33.836Z,12.90
2023-04-18T11:02:26.411Z,13.80
2023-04-18T11:04:56.108Z,13.38
2023-04-18T11:12:35.073Z,13.52
2023-04-18T11:17:40.164Z,14.95
2023-04-18T11:20:11.362Z,17.27
2023-04-18T11:22:59.610Z,16.02
2023-04-18T11:25:32.263Z,18.23
2023-04-18T11:29:04.785Z,18.13
2023-04-18T11:36:05.701Z,16.13
2023-04-18T11:38:33.528Z,17.60
2023-04-18T11:41:03.022Z,21.23
2023-04-18T11:43:30.604Z,20.95
2023-04-18T11:45:59.812Z,18.85
2023-04-18T11:48:37.283Z,19.73
2023-04-18T11:51:06.502Z,18.80
2023-04-18T11:53:37.227Z,19.10
2023-04-18T11:56:05.638Z,18.50
2023-04-18T11:58:33.524Z,17.92
2023-04-18T12:01:16.182Z,16.95
2023-04-18T12:03:59.278Z,19.05
2023-04-18T12:06:28.367Z,14.77
2023-04-18T12:09:00.242Z,19.08
2023-04-18T12:11:27.690Z,14.55
2023-04-18T12:13:56.932Z,16.17
2023-04-18T12:16:28.361Z,16.05
2023-04-18T12:19:00.876Z,14.68
2023-04-18T12:21:30.296Z,15.18
2023-04-18T12:28:28.805Z,16.20
2023-04-18T12:30:56.132Z,14.77
2023-04-18T12:33:23.832Z,15.50
2023-04-18T12:35:52.698Z,18.33
2023-04-18T12:38:22.334Z,18.58
2023-04-18T12:40:51.039Z,20.77
2023-04-18T12:43:19.380Z,16.63
2023-04-18T12:45:47.174Z,18.27
2023-04-18T12:48:14.811Z,17.67
2023-04-18T12:50:42.091Z,16.52
2023-04-18T12:53:09.681Z,15.95
2023-04-18T12:55:37.084Z,21.65
2023-04-18T12:58:04.576Z,14.95
2023-04-18T13:00:32.913Z,15.50
2023-04-18T13:03:00.966Z,16.75
2023-04-18T13:05:33.037Z,19.15
2023-04-18T13:10:32.347Z,15.32
2023-04-18T13:12:59.963Z,15.88
2023-04-18T13:15:27.729Z,17.50
2023-04-18T13:18:04.474Z,23.50
2023-04-18T13:20:32.522Z,15.35
2023-04-18T13:23:00.349Z,14.77
2023-04-18T13:25:27.509Z,17.27
2023-04-18T13:27:55.285Z,15.15
2023-04-18T13:30:23.628Z,16.80
2023-04-18T13:32:51.334Z,12.52
2023-04-18T13:35:18.634Z,15.73
2023-04-18T13:37:46.405Z,12.43
2023-04-18T13:40:14.002Z,13.18
2023-04-18T13:42:41.513Z,11.95
2023-04-18T13:45:09.008Z,12.93
2023-04-18T13:47:37.104Z,15.95
2023-04-18T13:50:04.680Z,18.42
2023-04-18T13:52:32.292Z,16.20
2023-04-18T13:54:59.522Z,23.48
2023-04-18T13:57:28.468Z,19.48
2023-04-18T13:59:55.694Z,12.95
2023-04-18T14:02:23.420Z,10.65
2023-04-18T14:04:52.143Z,18.70
2023-04-18T14:07:19.770Z,12.00
2023-04-18T14:09:48.241Z,16.67
2023-04-18T14:12:16.170Z,17.52
2023-04-18T14:14:43.316Z,12.68
2023-04-18T14:17:11.598Z,9.68
2023-04-18T14:19:38.779Z,16.65
2023-04-18T14:22:07.915Z,12.38
2023-04-18T14:24:36.505Z,13.95
2023-04-18T14:27:04.075Z,12.23
2023-04-18T14:29:31.228Z,15.13
2023-04-18T14:31:58.752Z,13.98
2023-04-18T14:34:26.030Z,14.48
2023-04-18T14:36:53.612Z,15.45
2023-04-18T14:39:21.695Z,12.48
2023-04-18T14:41:49.214Z,10.75
2023-04-18T14:44:17.368Z,16.00
2023-04-18T14:46:44.864Z,15.93
2023-04-18T14:49:12.444Z,15.80
2023-04-18T14:51:40.035Z,11.00
2023-04-18T14:54:07.367Z,9.93
2023-04-18T14:56:34.898Z,13.73
2023-04-18T14:59:02.746Z,11.02
2023-04-18T15:01:30.446Z,12.57
2023-04-18T15:03:57.774Z,11.38
2023-04-18T15:06:25.595Z,10.52
2023-04-18T15:08:53.022Z,9.48
2023-04-18T15:11:20.516Z,11.05
2023-04-18T15:13:47.833Z,12.73
2023-04-18T15:16:15.941Z,8.77
2023-04-18T15:18:43.910Z,7.75
2023-04-18T15:21:11.611Z,11.27
2023-04-18T15:23:38.785Z,11.43
2023-04-18T15:26:06.477Z,9.15
2023-04-18T15:28:33.747Z,7.60
2023-04-18T15:31:01.255Z,9.00
2023-04-18T15:33:28.679Z,11.27
2023-04-18T15:35:56.170Z,8.77
2023-04-18T15:38:23.348Z,8.88
2023-04-18T15:40:51.227Z,9.13
2023-04-18T15:43:18.467Z,11.07
2023-04-18T15:45:46.997Z,9.77
2023-04-18T15:48:14.504Z,9.88
2023-04-18T15:50:42.552Z,10.52
2023-04-18T15:53:09.874Z,8.52
2023-04-18T15:55:37.509Z,7.18
2023-04-18T15:58:05.132Z,9.27
2023-04-18T16:00:32.815Z,7.68
2023-04-18T16:03:00.067Z,8.68
2023-04-18T16:05:27.614Z,5.63
2023-04-18T16:07:56.360Z,6.13
2023-04-18T16:10:24.012Z,10.40
2023-04-18T16:12:51.269Z,6.47
2023-04-18T16:15:18.810Z,4.68
2023-04-18T16:17:46.241Z,7.70
2023-04-18T16:20:13.825Z,6.82
2023-04-18T16:22:41.064Z,7.40
2023-04-18T16:25:09.331Z,6.60
2023-04-18T16:27:36.526Z,7.05
2023-04-18T16:30:05.197Z,5.25
2023-04-18T16:32:32.620Z,6.25
2023-04-18T16:35:00.417Z,8.60
2023-04-18T16:37:27.615Z,19.35
2023-04-18T16:39:55.312Z,7.63
2023-04-18T16:42:22.829Z,8.88
2023-04-18T16:44:50.648Z,10.15
2023-04-18T16:47:17.878Z,13.68
2023-04-18T16:49:47.715Z,7.43
2023-04-18T16:52:15.114Z,6.60
2023-04-18T16:54:42.637Z,7.22
2023-04-18T16:57:10.299Z,8.82
2023-04-18T16:59:37.782Z,9.02
2023-04-18T17:02:05.183Z,6.40
2023-04-18T17:04:32.908Z,10.05
2023-04-18T17:07:00.768Z,6.93
2023-04-18T17:09:28.367Z,9.23
2023-04-18T17:11:57.908Z,10.35
2023-04-18T17:14:25.376Z,10.48
2023-04-18T17:16:53.701Z,8.95
2023-04-18T17:19:22.974Z,7.65
2023-04-18T17:21:51.051Z,6.80
2023-04-18T17:24:18.939Z,9.32
2023-04-18T17:26:46.332Z,8.73
2023-04-18T17:29:14.116Z,9.27
2023-04-18T17:31:41.765Z,10.35
2023-04-18T17:34:09.411Z,9.95
2023-04-18T17:36:36.679Z,9.85
2023-04-18T17:39:07.027Z,5.85
2023-04-18T17:41:38.949Z,6.53
2023-04-18T17:44:10.422Z,8.48
2023-04-18T17:46:37.777Z,6.07
2023-04-18T17:49:05.575Z,8.20
2023-04-18T17:51:32.880Z,7.93
2023-04-18T17:54:00.421Z,7.45
2023-04-18T17:56:27.680Z,8.68
2023-04-18T17:58:56.691Z,7.10
2023-04-18T18:01:26.200Z,8.02
2023-04-18T18:03:54.217Z,9.25
2023-04-18T18:06:21.694Z,10.70
2023-04-18T18:08:49.253Z,6.47
2023-04-18T18:11:16.467Z,9.55
2023-04-18T18:13:44.408Z,7.03
2023-04-18T18:16:12.689Z,18.15
2023-04-18T18:18:40.356Z,7.28
2023-04-18T18:21:07.652Z,7.25
2023-04-18T18:23:35.161Z,6.80
2023-04-18T18:26:02.416Z,6.63
2023-04-18T18:28:29.924Z,7.57
2023-04-18T18:30:57.178Z,7.05
2023-04-18T18:33:24.841Z,6.93
2023-04-18T18:35:52.030Z,5.93
2023-04-18T18:38:19.739Z,8.95
2023-04-18T18:40:47.059Z,8.43
2023-04-18T18:43:14.575Z,9.10
2023-04-18T18:45:42.063Z,10.20
2023-04-18T18:48:10.427Z,8.98
2023-04-18T18:50:37.860Z,4.60
2023-04-18T18:53:06.254Z,5.07
2023-04-18T18:55:33.613Z,6.38
2023-04-18T18:58:01.226Z,6.05
2023-04-18T19:00:28.559Z,6.78
2023-04-18T19:02:56.241Z,6.43
2023-04-18T19:05:23.567Z,7.05
2023-04-18T19:07:51.613Z,5.00
2023-04-18T19:10:18.915Z,6.90
2023-04-18T19:12:46.522Z,7.35
2023-04-18T19:15:13.859Z,9.52
2023-04-18T19:17:41.767Z,11.40
2023-04-18T19:20:09.367Z,6.05
2023-04-18T19:22:38.048Z,8.48
2023-04-18T19:25:05.675Z,8.93
2023-04-18T19:27:33.228Z,6.05
2023-04-18T19:30:00.680Z,5.45
2023-04-18T19:32:28.301Z,7.78
2023-04-18T19:34:55.940Z,8.63
2023-04-18T19:37:23.452Z,6.20
2023-04-18T19:39:50.816Z,7.85
2023-04-18T19:42:18.363Z,10.68
2023-04-18T19:44:45.630Z,5.82
2023-04-18T19:47:13.243Z,6.97
2023-04-18T19:49:40.714Z,6.10
2023-04-18T19:52:08.170Z,7.30
2023-04-18T19:54:35.813Z,7.32
2023-04-18T19:57:04.733Z,8.05
2023-04-18T19:59:32.212Z,8.60
2023-04-18T20:02:03.307Z,8.10
2023-04-18T20:04:34.391Z,10.00
2023-04-18T20:07:02.739Z,4.57
2023-04-18T20:09:29.951Z,5.65
2023-04-18T20:12:00.543Z,8.98
2023-04-18T20:14:28.862Z,5.25
2023-04-18T20:16:57.066Z,7.55
2023-04-18T20:19:29.909Z,6.15
2023-04-18T20:21:57.544Z,7.32
2023-04-18T20:24:28.038Z,8.13
2023-04-18T20:26:55.633Z,7.55
2023-04-18T20:29:22.824Z,5.95
2023-04-18T20:31:50.558Z,6.82
2023-04-18T20:34:17.815Z,6.55
2023-04-18T20:36:46.636Z,8.48
2023-04-18T20:39:14.221Z,8.63
2023-04-18T20:41:48.616Z,6.50
2023-04-18T20:44:16.925Z,6.15
2023-04-18T20:46:44.740Z,6.95
2023-04-18T20:49:12.105Z,7.10
2023-04-18T20:51:39.678Z,10.48
2023-04-18T20:54:06.916Z,5.30
2023-04-18T20:56:36.887Z,5.80
2023-04-18T20:59:04.985Z,7.85
2023-04-18T21:01:32.566Z,7.10
2023-04-18T21:04:00.078Z,5.13
2023-04-18T21:06:28.388Z,5.38
2023-04-18T21:08:55.661Z,7.82
2023-04-18T21:11:23.699Z,7.90
2023-04-18T21:13:50.973Z,5.25
2023-04-18T21:16:18.613Z,6.65
2023-04-18T21:18:46.101Z,6.00
2023-04-18T21:21:13.739Z,10.65
2023-04-18T21:23:42.770Z,6.55
2023-04-18T21:26:12.689Z,8.20
2023-04-18T21:28:53.887Z,5.68
2023-04-18T21:31:21.426Z,10.00
2023-04-18T21:33:52.105Z,3.97
2023-04-18T21:36:19.977Z,5.50
2023-04-18T21:38:47.229Z,7.45
2023-04-18T21:41:17.065Z,7.43
2023-04-18T21:43:44.653Z,6.68
2023-04-18T21:46:12.570Z,5.47
2023-04-18T21:48:41.092Z,6.68
2023-04-18T21:51:10.018Z,8.02
2023-04-18T21:53:38.653Z,7.68
2023-04-18T21:56:07.134Z,5.45
2023-04-18T21:58:34.659Z,10.85
2023-04-18T22:01:02.368Z,6.35
2023-04-18T22:03:30.003Z,7.00
2023-04-18T22:05:58.599Z,8.00
2023-04-18T22:08:26.406Z,6.75
2023-04-18T22:10:55.719Z,6.22
2023-04-18T22:13:23.513Z,5.85
2023-04-18T22:15:51.979Z,6.93
2023-04-18T22:18:19.441Z,4.57
2023-04-18T22:20:47.121Z,11.73
2023-04-18T22:23:14.502Z,8.52
2023-04-18T22:25:42.210Z,7.25
2023-04-18T22:28:09.585Z,5.72
2023-04-18T22:30:37.318Z,9.90
2023-04-18T22:33:04.760Z,6.35
2023-04-18T22:35:32.516Z,7.88
2023-04-18T22:37:59.929Z,5.68
2023-04-18T22:40:27.700Z,5.85
2023-04-18T22:42:55.271Z,6.28
2023-04-18T22:45:22.952Z,9.95
2023-04-18T22:47:50.320Z,9.35
2023-04-18T22:50:18.002Z,7.70
2023-04-18T22:52:45.442Z,8.85
2023-04-18T22:55:16.458Z,7.60
2023-04-18T22:57:43.997Z,8.18
2023-04-18T23:00:12.498Z,11.02
2023-04-18T23:02:40.267Z,9.65
2023-04-18T23:05:09.169Z,9.90
2023-04-18T23:07:36.581Z,8.57
2023-04-18T23:10:06.637Z,7.95
2023-04-18T23:12:34.138Z,9.27
2023-04-18T23:15:01.849Z,7.57
2023-04-18T23:17:29.277Z,11.43
2023-04-18T23:22:24.411Z,9.85
2023-04-18T23:24:52.426Z,5.85
2023-04-18T23:27:19.821Z,5.68
2023-04-18T23:29:48.888Z,10.98
2023-04-18T23:32:16.648Z,7.47
2023-04-18T23:34:46.149Z,9.70
2023-04-18T23:37:13.533Z,10.95
2023-04-18T23:39:41.316Z,11.45
2023-04-18T23:42:09.206Z,8.80
2023-04-18T23:44:36.956Z,6.43
2023-04-18T23:47:04.498Z,10.52
2023-04-18T23:49:32.302Z,10.30
2023-04-18T23:51:59.904Z,9.27
2023-04-18T23:54:27.567Z,9.40
2023-04-18T23:56:54.924Z,10.65
2023-04-18T23:59:22.700Z,10.30
